createdAt,value
2022-09-24T07:10:06.856Z,101802.13
2022-09-24T07:12:37.258Z,101798.56
2022-09-24T07:15:08.035Z,101800.47
2022-09-24T07:17:37.264Z,101796.78
2022-09-24T07:20:07.494Z,101806.84
2022-09-24T07:22:41.014Z,101815.13
2022-09-24T07:25:13.257Z,101809.03
2022-09-24T07:27:42.473Z,101794.50
2022-09-24T07:30:12.969Z,101798.19
2022-09-24T07:32:42.068Z,101810.97
2022-09-24T07:35:11.390Z,101795.50
2022-09-24T07:37:40.501Z,101807.81
2022-09-24T07:40:12.079Z,101812.50
2022-09-24T07:42:48.532Z,101812.75
2022-09-24T07:45:18.418Z,101808.75
2022-09-24T07:47:47.584Z,101810.91
2022-09-24T07:50:17.952Z,101805.47
2022-09-24T07:52:52.213Z,101808.66
2022-09-24T07:55:23.070Z,101806.69
2022-09-24T07:57:55.746Z,101810.44
2022-09-24T08:00:25.737Z,101820.34
2022-09-24T08:02:56.642Z,101823.84
2022-09-24T08:05:25.913Z,101816.78
2022-09-24T08:07:57.195Z,101826.91
2022-09-24T08:10:29.880Z,101807.75
2022-09-24T08:13:03.475Z,101822.84
2022-09-24T08:15:32.610Z,101817.56
2022-09-24T08:18:03.808Z,101822.25
2022-09-24T08:20:34.376Z,101829.69
2022-09-24T08:23:04.377Z,101830.00
2022-09-24T08:25:35.221Z,101818.09
2022-09-24T08:28:04.999Z,101835.00
2022-09-24T08:30:35.118Z,101838.06
2022-09-24T08:33:05.512Z,101842.97
2022-09-24T08:35:35.036Z,101851.81
2022-09-24T08:38:04.636Z,101834.31
2022-09-24T08:40:40.441Z,101850.56
2022-09-24T08:43:25.863Z,101843.25
2022-09-24T08:46:18.849Z,101842.13
2022-09-24T08:48:53.363Z,101839.00
2022-09-24T08:51:24.934Z,101838.38
2022-09-24T08:53:59.725Z,101858.22
2022-09-24T08:56:39.706Z,101864.63
2022-09-24T08:59:24.126Z,101859.44
2022-09-24T09:02:14.306Z,101863.53
2022-09-24T09:04:58.171Z,101859.00
2022-09-24T09:07:32.420Z,101857.16
2022-09-24T09:10:05.600Z,101855.94
2022-09-24T09:12:40.926Z,101860.19
2022-09-24T09:15:17.516Z,101856.94
2022-09-24T09:17:52.265Z,101861.84
2022-09-24T09:20:26.699Z,101860.06
2022-09-24T09:22:56.226Z,101834.69
2022-09-24T09:25:28.692Z,101849.31
2022-09-24T09:28:06.059Z,101866.78
2022-09-24T09:30:43.733Z,101870.50
2022-09-24T09:33:28.789Z,101866.34
2022-09-24T09:36:21.475Z,101859.91
2022-09-24T09:39:01.397Z,101878.53
2022-09-24T09:41:40.582Z,101869.09
2022-09-24T09:44:18.045Z,101861.69
2022-09-24T09:46:55.457Z,101874.63
2022-09-24T09:49:29.100Z,101872.69
2022-09-24T09:52:03.685Z,101880.56
2022-09-24T09:54:39.860Z,101886.31
2022-09-24T09:57:15.619Z,101877.06
2022-09-24T09:59:49.485Z,101866.72
2022-09-24T10:02:27.079Z,101881.03
2022-09-24T10:04:59.625Z,101890.56
2022-09-24T10:07:31.711Z,101892.09
2022-09-24T10:10:18.614Z,101892.84
2022-09-24T10:12:48.507Z,101886.97
2022-09-24T10:15:21.937Z,101886.94
2022-09-24T10:17:55.595Z,101881.22
2022-09-24T10:20:29.453Z,101887.84
2022-09-24T10:23:03.930Z,101883.00
2022-09-24T10:25:36.335Z,101860.97
2022-09-24T10:28:28.027Z,101875.38
2022-09-24T10:31:02.794Z,101892.16
2022-09-24T10:33:38.527Z,101893.66
2022-09-24T10:36:14.301Z,101894.25
2022-09-24T10:38:43.785Z,101898.16
2022-09-24T10:41:26.188Z,101906.78
2022-09-24T10:43:57.234Z,101896.78
2022-09-24T10:46:52.126Z,101897.69
2022-09-24T10:49:39.181Z,101910.84
2022-09-24T10:52:31.996Z,101903.78
2022-09-24T10:55:19.322Z,101912.09
2022-09-24T10:58:04.183Z,101903.50
2022-09-24T11:00:41.634Z,101912.34
2022-09-24T11:04:05.612Z,101902.63
2022-09-24T11:06:51.206Z,101905.22
2022-09-24T11:09:32.177Z,101906.41
2022-09-24T11:12:11.474Z,101894.38
2022-09-24T11:14:56.052Z,101913.38
2022-09-24T11:17:34.634Z,101899.50
2022-09-24T11:20:21.855Z,101901.56
2022-09-24T11:23:18.983Z,101899.13
2022-09-24T11:25:56.251Z,101906.59
2022-09-24T11:28:48.620Z,101912.78
2022-09-24T11:31:27.828Z,101903.56
2022-09-24T11:34:15.215Z,101901.66
2022-09-24T11:37:03.338Z,101894.16
2022-09-24T11:39:52.563Z,101899.09
2022-09-24T11:42:31.368Z,101907.59
2022-09-24T11:45:41.266Z,101906.13
2022-09-24T11:48:45.948Z,101913.41
2022-09-24T11:51:29.455Z,101916.97
2022-09-24T11:54:09.257Z,101910.41
2022-09-24T11:56:43.525Z,101911.97
2022-09-24T11:59:23.784Z,101902.09
2022-09-24T12:02:03.793Z,101915.28
2022-09-24T12:04:50.452Z,101924.31
2022-09-24T12:07:29.703Z,101878.88
2022-09-24T12:10:06.142Z,101896.69
2022-09-24T12:12:40.775Z,101900.13
2022-09-24T12:15:19.912Z,101918.19
2022-09-24T12:17:57.906Z,101911.97
2022-09-24T12:20:30.343Z,101919.19
2022-09-24T12:23:05.449Z,101903.59
2022-09-24T12:25:45.200Z,101910.22
2022-09-24T12:28:36.834Z,101921.91
2022-09-24T12:31:32.759Z,101905.69
2022-09-24T12:34:09.898Z,101898.66
2022-09-24T12:36:57.547Z,101898.28
2022-09-24T12:39:31.771Z,101854.38
2022-09-24T12:42:06.154Z,101901.19
2022-09-24T12:44:46.443Z,101904.31
2022-09-24T12:47:24.091Z,101901.63
2022-09-24T12:49:57.781Z,101899.06
2022-09-24T12:52:33.052Z,101908.03
2022-09-24T12:55:05.522Z,101891.88
2022-09-24T12:57:41.524Z,101903.09
2022-09-24T13:00:37.820Z,101895.25
2022-09-24T13:03:08.677Z,101899.06
2022-09-24T13:05:49.926Z,101889.88
2022-09-24T13:08:27.955Z,101894.25
2022-09-24T13:11:00.825Z,101899.44
2022-09-24T13:13:35.329Z,101887.78
2022-09-24T13:16:07.891Z,101904.97
2022-09-24T13:18:37.957Z,101901.41
2022-09-24T13:21:10.303Z,101872.63
2022-09-24T13:23:48.664Z,101897.78
2022-09-24T13:26:35.062Z,101895.66
2022-09-24T13:29:07.170Z,101918.91
2022-09-24T13:31:49.064Z,101911.41
2022-09-24T13:34:23.284Z,101875.19
2022-09-24T13:37:00.851Z,101898.09
2022-09-24T13:39:38.195Z,101851.41
2022-09-24T13:42:18.971Z,101902.00
2022-09-24T13:44:53.950Z,101908.41
2022-09-24T13:47:30.792Z,101882.66
2022-09-24T13:50:10.134Z,101916.47
2022-09-24T13:52:45.171Z,101911.97
2022-09-24T13:55:22.974Z,101914.03
2022-09-24T13:57:52.393Z,101916.00
2022-09-24T14:00:27.704Z,101904.44
2022-09-24T14:03:02.912Z,101908.50
2022-09-24T14:05:37.209Z,101907.75
2022-09-24T14:08:09.822Z,101909.47
2022-09-24T14:10:40.157Z,101910.13
2022-09-24T14:13:21.511Z,101915.63
2022-09-24T14:15:57.724Z,101913.34
2022-09-24T14:18:28.815Z,101896.34
2022-09-24T14:21:04.204Z,101905.66
2022-09-24T14:23:40.353Z,101895.22
2022-09-24T14:26:17.219Z,101916.16
2022-09-24T14:28:46.745Z,101913.34
2022-09-24T14:31:17.505Z,101924.72
2022-09-24T14:33:47.127Z,101914.25
2022-09-24T14:36:17.220Z,101915.13
2022-09-24T14:38:59.165Z,101905.03
2022-09-24T14:41:33.192Z,101915.81
2022-09-24T14:44:07.907Z,101919.41
2022-09-24T14:46:48.820Z,101916.47
2022-09-24T14:49:23.567Z,101917.69
2022-09-24T14:51:55.011Z,101919.78
2022-09-24T14:54:33.075Z,101898.72
2022-09-24T14:57:24.772Z,101919.63
2022-09-24T14:59:54.354Z,101908.53
2022-09-24T15:02:32.027Z,101937.28
2022-09-24T15:05:06.482Z,101937.88
2022-09-24T15:07:36.818Z,101916.53
2022-09-24T15:10:07.791Z,101892.50
2022-09-24T15:12:39.134Z,101927.16
2022-09-24T15:15:30.611Z,101915.97
2022-09-24T15:18:01.277Z,101909.72
2022-09-24T15:20:30.383Z,101910.34
2022-09-24T15:22:59.460Z,101923.75
2022-09-24T15:25:29.071Z,101925.59
2022-09-24T15:27:59.435Z,101911.63
2022-09-24T15:30:28.633Z,101920.63
2022-09-24T15:32:58.063Z,101907.53
2022-09-24T15:35:28.721Z,101920.44
2022-09-24T15:37:59.956Z,101922.13
2022-09-24T15:40:31.237Z,101914.72
2022-09-24T15:43:00.558Z,101918.88
2022-09-24T15:45:29.650Z,101904.31
2022-09-24T15:47:58.898Z,101940.78
2022-09-24T15:50:29.594Z,101931.94
2022-09-24T15:53:02.000Z,101932.38
2022-09-24T15:55:31.443Z,101938.91
2022-09-24T15:58:02.041Z,101920.31
2022-09-24T16:00:31.175Z,101912.19
2022-09-24T16:03:00.719Z,101933.72
2022-09-24T16:05:31.289Z,101942.16
2022-09-24T16:08:00.399Z,101944.38
2022-09-24T16:10:29.629Z,101932.28
2022-09-24T16:12:58.788Z,101927.75
2022-09-24T16:15:28.132Z,101939.47
2022-09-24T16:17:57.205Z,101942.31
2022-09-24T16:20:26.363Z,101899.47
2022-09-24T16:22:57.003Z,101938.19
2022-09-24T16:25:27.493Z,101967.78
2022-09-24T16:27:57.589Z,101939.66
2022-09-24T16:30:26.917Z,101959.81
2022-09-24T16:32:56.007Z,101953.63
2022-09-24T16:35:25.197Z,101935.72
2022-09-24T16:37:54.286Z,101935.81
2022-09-24T16:40:24.861Z,101947.94
2022-09-24T16:42:54.126Z,101968.22
2022-09-24T16:45:23.212Z,101966.94
2022-09-24T16:47:52.381Z,101953.19
2022-09-24T16:50:23.764Z,101971.31
2022-09-24T16:52:54.961Z,101963.59
2022-09-24T16:55:25.543Z,101974.19
2022-09-24T16:57:54.998Z,101972.91
2022-09-24T17:00:24.133Z,101982.69
2022-09-24T17:02:53.734Z,101973.91
2022-09-24T17:05:22.949Z,101980.09
2022-09-24T17:07:52.045Z,101941.28
2022-09-24T17:10:23.712Z,101963.59
2022-09-24T17:12:54.302Z,101976.25
2022-09-24T17:15:23.422Z,101972.84
2022-09-24T17:17:52.509Z,101964.91
2022-09-24T17:20:22.978Z,101950.91
2022-09-24T17:22:52.146Z,101987.50
2022-09-24T17:25:21.285Z,101984.38
2022-09-24T17:27:50.494Z,101985.72
2022-09-24T17:30:21.988Z,101976.63
2022-09-24T17:32:52.340Z,101986.03
2022-09-24T17:35:21.492Z,101989.47
2022-09-24T17:37:50.984Z,101983.47
2022-09-24T17:40:23.830Z,101974.81
2022-09-24T17:42:53.678Z,101982.78
2022-09-24T17:45:24.287Z,101995.94
2022-09-24T17:48:00.706Z,101932.50
2022-09-24T17:50:30.212Z,101999.50
2022-09-24T17:53:00.045Z,101999.84
2022-09-24T17:55:29.358Z,101989.25
2022-09-24T17:57:58.502Z,102013.81
2022-09-24T18:00:29.242Z,101987.16
2022-09-24T18:02:58.547Z,101993.00
2022-09-24T18:05:27.816Z,101989.25
2022-09-24T18:07:57.033Z,102022.13
2022-09-24T18:10:26.308Z,102019.19
2022-09-24T18:12:55.775Z,102014.31
2022-09-24T18:15:25.475Z,102032.19
2022-09-24T18:17:56.815Z,102031.38
2022-09-24T18:20:27.167Z,102031.53
2022-09-24T18:22:56.334Z,102038.38
2022-09-24T18:25:27.282Z,102032.03
2022-09-24T18:28:00.966Z,102042.91
2022-09-24T18:30:30.534Z,102039.66
2022-09-24T18:33:02.749Z,102028.94
2022-09-24T18:35:31.857Z,102041.44
2022-09-24T18:38:01.173Z,102047.97
2022-09-24T18:40:30.675Z,102043.72
2022-09-24T18:43:00.124Z,102049.72
2022-09-24T18:45:29.570Z,102063.38
2022-09-24T18:48:00.066Z,102058.00
2022-09-24T18:50:29.553Z,102046.44
2022-09-24T18:53:00.090Z,102058.31
2022-09-24T18:55:30.483Z,102060.72
2022-09-24T18:57:59.727Z,102062.19
2022-09-24T19:00:46.551Z,102077.94
2022-09-24T19:03:17.854Z,102065.91
2022-09-24T19:05:47.999Z,102081.03
2022-09-24T19:08:17.465Z,102079.38
2022-09-24T19:10:46.847Z,102084.59
2022-09-24T19:13:17.072Z,102074.97
2022-09-24T19:15:46.978Z,102061.13
2022-09-24T19:18:18.524Z,102083.56
2022-09-24T19:20:49.751Z,102054.75
2022-09-24T19:23:19.016Z,102073.44
2022-09-24T19:25:48.178Z,102087.31
2022-09-24T19:28:17.572Z,102088.25
2022-09-24T19:30:49.447Z,102070.97
2022-09-24T19:33:20.558Z,102089.66
2022-09-24T19:35:56.319Z,102086.53
2022-09-24T19:38:28.635Z,102090.25
2022-09-24T19:41:02.925Z,102085.81
2022-09-24T19:43:33.338Z,102078.69
2022-09-24T19:46:04.542Z,102042.47
2022-09-24T19:48:39.831Z,102092.75
2022-09-24T19:51:13.610Z,102100.81
2022-09-24T19:53:43.950Z,102092.25
2022-09-24T19:56:13.334Z,102086.66
2022-09-24T19:58:42.536Z,102102.69
2022-09-24T20:01:16.314Z,102090.50
2022-09-24T20:03:48.669Z,102099.91
2022-09-24T20:06:21.033Z,102110.72
2022-09-24T20:08:50.713Z,102099.09
2022-09-24T20:11:22.045Z,102119.72
2022-09-24T20:13:53.142Z,102093.16
2022-09-24T20:16:26.476Z,102085.22
2022-09-24T20:18:58.533Z,102114.41
2022-09-24T20:21:30.129Z,102104.41
2022-09-24T20:24:01.348Z,102099.63
2022-09-24T20:26:48.106Z,102104.59
2022-09-24T20:29:19.691Z,102105.81
2022-09-24T20:31:52.931Z,102106.13
2022-09-24T20:34:33.611Z,102109.91
2022-09-24T20:37:04.521Z,102103.59
2022-09-24T20:39:34.291Z,102103.78
2022-09-24T20:42:04.032Z,102111.16
2022-09-24T20:44:34.134Z,102086.03
2022-09-24T20:47:03.483Z,102111.84
2022-09-24T20:49:34.883Z,102117.28
2022-09-24T20:52:06.138Z,102105.84
2022-09-24T20:54:35.518Z,102100.94
2022-09-24T20:57:05.033Z,102105.53
2022-09-24T20:59:34.429Z,102089.59
2022-09-24T21:02:03.886Z,102102.47
2022-09-24T21:04:35.949Z,102102.25
2022-09-24T21:07:05.877Z,102096.63
2022-09-24T21:09:35.025Z,102113.66
2022-09-24T21:12:04.533Z,102106.63
2022-09-24T21:14:35.865Z,102102.41
2022-09-24T21:17:05.163Z,102095.38
2022-09-24T21:19:36.521Z,102083.53
2022-09-24T21:22:06.161Z,102115.53
2022-09-24T21:24:35.337Z,102114.81
2022-09-24T21:27:05.360Z,102102.94
2022-09-24T21:29:34.554Z,102103.03
2022-09-24T21:32:04.022Z,102119.97
2022-09-24T21:34:35.770Z,102118.94
2022-09-24T21:37:04.944Z,102113.81
2022-09-24T21:39:34.150Z,102095.81
2022-09-24T21:42:03.236Z,102097.25
2022-09-24T21:44:34.330Z,102107.13
2022-09-24T21:47:03.504Z,102108.81
2022-09-24T21:49:36.781Z,102074.31
2022-09-24T21:52:07.083Z,102113.16
2022-09-24T21:54:36.627Z,102126.31
2022-09-24T21:57:05.828Z,102118.13
2022-09-24T21:59:52.224Z,102125.34
2022-09-24T22:02:21.591Z,102114.19
2022-09-24T22:04:52.261Z,102121.31
2022-09-24T22:07:21.418Z,102125.50
2022-09-24T22:09:50.702Z,102107.94
2022-09-24T22:12:19.878Z,102132.81
2022-09-24T22:14:49.008Z,102143.00
2022-09-24T22:17:20.595Z,102141.72
2022-09-24T22:19:51.224Z,102093.53
2022-09-24T22:22:21.780Z,102144.31
2022-09-24T22:24:50.890Z,102140.63
2022-09-24T22:27:20.006Z,102151.56
2022-09-24T22:29:49.119Z,102152.13
2022-09-24T22:32:18.258Z,102113.13
2022-09-24T22:35:04.672Z,102154.38
2022-09-24T22:37:35.283Z,102158.56
2022-09-24T22:40:04.468Z,102154.75
2022-09-24T22:42:33.544Z,102166.13
2022-09-24T22:45:02.671Z,102158.69
2022-09-24T22:47:31.855Z,102162.13
2022-09-24T22:50:01.046Z,102169.00
2022-09-24T22:52:30.256Z,102178.88
2022-09-24T22:55:00.797Z,102178.38
2022-09-24T22:57:29.955Z,102177.81
2022-09-24T23:00:01.414Z,102180.28
2022-09-24T23:02:31.340Z,102181.69
2022-09-24T23:05:00.614Z,102133.94
2022-09-24T23:07:29.897Z,102173.22
2022-09-24T23:10:00.473Z,102125.41
2022-09-24T23:12:33.051Z,102152.16
2022-09-24T23:15:02.532Z,102143.09
2022-09-24T23:17:32.849Z,102140.09
2022-09-24T23:20:03.083Z,102140.56
2022-09-24T23:22:32.262Z,102128.09
2022-09-24T23:25:02.979Z,102129.16
2022-09-24T23:27:32.603Z,102110.34
2022-09-24T23:30:01.933Z,102119.63
2022-09-24T23:32:32.248Z,102125.34
2022-09-24T23:35:02.005Z,102084.66
2022-09-24T23:37:31.308Z,102115.50
2022-09-24T23:40:02.205Z,102123.78
2022-09-24T23:42:31.429Z,102126.53
2022-09-24T23:45:00.560Z,102127.41
2022-09-24T23:47:33.873Z,102126.63
2022-09-24T23:50:05.857Z,102130.50
2022-09-24T23:52:35.018Z,102102.19
2022-09-24T23:55:06.043Z,102106.63
2022-09-24T23:57:35.038Z,102118.06
